createdAt,value
2023-04-07T00:01:13.843Z,10.33
2023-04-07T00:03:43.943Z,10.13
2023-04-07T00:06:11.235Z,8.00
2023-04-07T00:08:40.518Z,9.37
2023-04-07T00:11:08.947Z,10.00
2023-04-07T00:13:42.650Z,9.63
2023-04-07T00:16:09.652Z,11.03
2023-04-07T00:18:36.569Z,8.83
2023-04-07T00:21:03.453Z,8.50
2023-04-07T00:23:32.528Z,10.03
2023-04-07T00:26:01.682Z,11.10
2023-04-07T00:28:37.974Z,10.00
2023-04-07T00:31:07.431Z,11.07
2023-04-07T00:33:34.274Z,12.57
2023-04-07T00:36:01.407Z,11.03
2023-04-07T00:38:31.088Z,10.30
2023-04-07T00:41:01.355Z,10.17
2023-04-07T00:43:30.430Z,10.47
2023-04-07T00:45:59.937Z,9.13
2023-04-07T00:48:27.558Z,10.77
2023-04-07T00:50:57.015Z,11.00
2023-04-07T00:53:26.133Z,10.13
2023-04-07T00:55:55.385Z,11.53
2023-04-07T00:58:22.622Z,10.57
2023-04-07T01:01:23.059Z,9.97
2023-04-07T01:04:01.503Z,8.57
2023-04-07T01:06:38.566Z,8.07
2023-04-07T01:09:21.787Z,8.00
2023-04-07T01:12:05.328Z,7.80
2023-04-07T01:14:44.694Z,8.97
2023-04-07T01:17:37.981Z,8.70
2023-04-07T01:20:13.932Z,11.00
2023-04-07T01:22:57.305Z,10.73
2023-04-07T01:26:06.580Z,9.30
2023-04-07T01:29:26.107Z,9.60
2023-04-07T01:31:58.108Z,8.87
2023-04-07T01:34:29.556Z,8.97
2023-04-07T01:37:02.448Z,8.90
2023-04-07T01:39:32.376Z,7.97
2023-04-07T01:42:03.845Z,8.10
2023-04-07T01:44:36.667Z,8.13
2023-04-07T01:47:06.855Z,10.07
2023-04-07T01:49:41.014Z,10.07
2023-04-07T01:52:13.194Z,8.63
2023-04-07T01:54:45.584Z,8.60
2023-04-07T01:57:14.784Z,8.63
2023-04-07T01:59:44.579Z,7.67
2023-04-07T02:02:14.683Z,10.80
2023-04-07T02:05:03.055Z,7.57
2023-04-07T02:07:38.015Z,9.00
2023-04-07T02:10:12.028Z,10.13
2023-04-07T02:12:45.520Z,7.90
2023-04-07T02:15:18.105Z,8.20
2023-04-07T02:17:53.430Z,8.90
2023-04-07T02:20:24.239Z,8.03
2023-04-07T02:22:55.728Z,7.60
2023-04-07T02:25:32.840Z,9.10
2023-04-07T02:28:03.305Z,7.70
2023-04-07T02:30:36.361Z,8.67
2023-04-07T02:33:08.793Z,7.37
2023-04-07T02:35:38.090Z,9.17
2023-04-07T02:38:09.830Z,7.37
2023-04-07T02:40:36.867Z,7.70
2023-04-07T02:43:08.334Z,8.83
2023-04-07T02:45:38.187Z,8.83
2023-04-07T02:48:05.466Z,8.87
2023-04-07T02:50:36.953Z,7.67
2023-04-07T02:53:03.860Z,7.43
2023-04-07T02:55:30.889Z,7.57
2023-04-07T02:58:02.123Z,6.93
2023-04-07T03:00:41.529Z,9.10
2023-04-07T03:03:15.602Z,8.07
2023-04-07T03:05:50.440Z,7.40
2023-04-07T03:08:20.009Z,7.30
2023-04-07T03:10:49.447Z,9.70
2023-04-07T03:13:21.655Z,9.07
2023-04-07T03:15:51.064Z,7.50
2023-04-07T03:18:22.677Z,6.50
2023-04-07T03:20:56.064Z,7.00
2023-04-07T03:23:25.716Z,6.97
2023-04-07T03:25:55.286Z,8.23
2023-04-07T03:28:23.013Z,7.43
2023-04-07T03:30:49.870Z,6.70
2023-04-07T03:33:20.874Z,7.47
2023-04-07T03:35:48.088Z,7.67
2023-04-07T03:38:15.432Z,6.53
2023-04-07T03:40:42.874Z,7.00
2023-04-07T03:43:15.733Z,8.23
2023-04-07T03:45:44.631Z,8.73
2023-04-07T03:48:12.273Z,7.60
2023-04-07T03:50:50.880Z,7.90
2023-04-07T03:53:21.663Z,7.60
2023-04-07T03:55:49.463Z,8.43
2023-04-07T03:58:25.307Z,8.20
2023-04-07T04:00:56.949Z,6.73
2023-04-07T04:03:26.702Z,6.87
2023-04-07T04:06:08.215Z,7.23
2023-04-07T04:08:37.500Z,7.60
2023-04-07T04:11:07.889Z,7.90
2023-04-07T04:13:42.733Z,6.90
2023-04-07T04:16:10.001Z,9.10
2023-04-07T04:18:39.067Z,7.70
2023-04-07T04:21:10.788Z,8.07
2023-04-07T04:23:42.948Z,7.60
2023-04-07T04:26:14.226Z,8.73
2023-04-07T04:28:44.868Z,8.03
2023-04-07T04:31:13.100Z,7.83
2023-04-07T04:33:52.664Z,8.00
2023-04-07T04:36:20.030Z,7.90
2023-04-07T04:38:52.028Z,8.30
2023-04-07T04:41:21.259Z,8.53
2023-04-07T04:43:51.968Z,7.40
2023-04-07T04:46:25.100Z,8.10
2023-04-07T04:48:57.896Z,6.60
2023-04-07T04:51:27.437Z,9.13
2023-04-07T04:54:04.017Z,8.00
2023-04-07T04:56:34.592Z,9.10
2023-04-07T04:59:01.446Z,7.67
2023-04-07T05:01:37.126Z,7.70
2023-04-07T05:04:10.411Z,8.00
2023-04-07T05:06:43.910Z,7.37
2023-04-07T05:09:14.239Z,7.97
2023-04-07T05:11:48.905Z,6.80
2023-04-07T05:14:18.535Z,10.40
2023-04-07T05:16:54.526Z,9.30
2023-04-07T05:19:27.288Z,8.03
2023-04-07T05:22:02.029Z,6.90
2023-04-07T05:24:31.028Z,7.17
2023-04-07T05:27:02.980Z,7.40
2023-04-07T05:29:33.712Z,8.23
2023-04-07T05:32:01.963Z,7.90
2023-04-07T05:34:31.307Z,8.63
2023-04-07T05:37:02.616Z,7.27
2023-04-07T05:39:31.963Z,7.87
2023-04-07T05:42:02.164Z,7.70
2023-04-07T05:44:29.286Z,7.90
2023-04-07T05:46:59.471Z,9.17
2023-04-07T05:49:28.532Z,8.33
2023-04-07T05:52:06.002Z,5.90
2023-04-07T05:54:36.757Z,7.27
2023-04-07T05:57:08.002Z,6.17
2023-04-07T05:59:44.126Z,8.27
2023-04-07T06:02:12.612Z,8.67
2023-04-07T06:04:40.335Z,7.23
2023-04-07T06:07:09.181Z,7.83
2023-04-07T06:09:36.141Z,7.50
2023-04-07T06:12:09.165Z,8.87
2023-04-07T06:14:36.033Z,7.20
2023-04-07T06:17:05.183Z,9.70
2023-04-07T06:19:33.270Z,7.63
2023-04-07T06:22:00.964Z,7.97
2023-04-07T06:24:33.486Z,9.67
2023-04-07T06:27:03.633Z,7.57
2023-04-07T06:29:35.658Z,9.30
2023-04-07T06:32:07.412Z,8.13
2023-04-07T06:34:38.114Z,8.67
2023-04-07T06:37:08.274Z,8.30
2023-04-07T06:39:38.184Z,8.50
2023-04-07T06:42:07.226Z,9.60
2023-04-07T06:44:38.713Z,9.33
2023-04-07T06:47:10.404Z,9.17
2023-04-07T06:49:37.404Z,7.60
2023-04-07T06:52:05.703Z,8.53
2023-04-07T06:54:37.138Z,8.60
2023-04-07T06:57:11.775Z,7.80
2023-04-07T06:59:41.200Z,10.87
2023-04-07T07:02:08.206Z,7.30
2023-04-07T07:04:37.958Z,9.17
2023-04-07T07:07:09.235Z,8.60
2023-04-07T07:09:36.078Z,7.73
2023-04-07T07:12:04.325Z,7.53
2023-04-07T07:14:33.792Z,8.20
2023-04-07T07:17:00.778Z,7.90
2023-04-07T07:19:27.710Z,7.10
2023-04-07T07:21:56.619Z,7.90
2023-04-07T07:24:26.164Z,10.90
2023-04-07T07:26:52.995Z,9.23
2023-04-07T07:29:24.373Z,8.13
2023-04-07T07:31:56.440Z,8.60
2023-04-07T07:34:23.338Z,8.10
2023-04-07T07:36:52.329Z,8.80
2023-04-07T07:39:26.383Z,8.07
2023-04-07T07:41:53.467Z,8.20
2023-04-07T07:44:23.625Z,8.10
2023-04-07T07:46:53.109Z,9.37
2023-04-07T07:49:20.208Z,8.40
2023-04-07T07:51:49.358Z,8.17
2023-04-07T07:54:16.277Z,10.17
2023-04-07T07:56:48.326Z,8.17
2023-04-07T07:59:17.833Z,9.27
2023-04-07T08:01:49.605Z,7.17
2023-04-07T08:04:19.304Z,8.73
2023-04-07T08:06:46.524Z,11.70
2023-04-07T08:09:13.462Z,9.87
2023-04-07T08:11:42.565Z,8.97
2023-04-07T08:14:10.016Z,8.17
2023-04-07T08:16:41.640Z,7.57
2023-04-07T08:19:09.059Z,7.63
2023-04-07T08:21:38.431Z,9.77
2023-04-07T08:24:08.933Z,8.70
2023-04-07T08:26:38.429Z,7.70
2023-04-07T08:29:05.404Z,8.57
2023-04-07T08:31:36.685Z,8.23
2023-04-07T08:34:03.731Z,8.40
2023-04-07T08:36:31.449Z,9.67
2023-04-07T08:39:01.116Z,9.43
2023-04-07T08:41:37.291Z,7.73
2023-04-07T08:44:07.220Z,7.33
2023-04-07T08:46:38.333Z,8.70
2023-04-07T08:49:13.706Z,8.50
2023-04-07T08:51:47.586Z,9.17
2023-04-07T08:54:19.401Z,8.60
2023-04-07T08:56:53.643Z,8.30
2023-04-07T08:59:26.773Z,7.87
2023-04-07T09:01:56.661Z,8.20
2023-04-07T09:04:24.757Z,8.63
2023-04-07T09:06:58.407Z,8.37
2023-04-07T09:09:25.294Z,9.07
2023-04-07T09:11:54.269Z,9.93
2023-04-07T09:14:24.064Z,9.00
2023-04-07T09:16:57.368Z,8.73
2023-04-07T09:19:27.429Z,8.50
2023-04-07T09:21:56.744Z,10.30
2023-04-07T09:24:29.337Z,9.43
2023-04-07T09:27:17.400Z,8.33
2023-04-07T09:29:49.745Z,9.23
2023-04-07T09:32:38.826Z,8.67
2023-04-07T09:35:09.349Z,9.07
2023-04-07T09:37:37.205Z,9.10
2023-04-07T09:40:12.229Z,9.03
2023-04-07T09:42:46.854Z,8.70
2023-04-07T09:45:34.444Z,9.63
2023-04-07T09:48:19.227Z,7.97
2023-04-07T09:50:49.647Z,7.63
2023-04-07T09:53:23.060Z,8.87
2023-04-07T09:55:53.330Z,7.97
2023-04-07T09:58:25.078Z,8.40
2023-04-07T10:00:54.503Z,9.70
2023-04-07T10:03:24.765Z,9.33
2023-04-07T10:05:57.159Z,9.80
2023-04-07T10:08:30.109Z,11.60
2023-04-07T10:10:58.652Z,12.43
2023-04-07T10:13:26.812Z,11.10
2023-04-07T10:15:54.125Z,11.93
2023-04-07T10:18:26.554Z,9.63
2023-04-07T10:20:56.218Z,9.37
2023-04-07T10:23:49.309Z,8.50
2023-04-07T10:26:25.424Z,10.30
2023-04-07T10:29:08.204Z,8.43
2023-04-07T10:31:36.573Z,8.20
2023-04-07T10:34:05.758Z,10.07
2023-04-07T10:36:35.268Z,8.77
2023-04-07T10:39:07.364Z,10.27
2023-04-07T10:41:51.830Z,9.43
2023-04-07T10:44:43.361Z,7.43
2023-04-07T10:47:10.292Z,8.97
2023-04-07T10:49:59.405Z,10.40
2023-04-07T10:52:26.334Z,6.87
2023-04-07T10:55:28.998Z,7.43
2023-04-07T10:58:26.740Z,7.60
2023-04-07T11:01:14.537Z,6.67
2023-04-07T11:03:56.772Z,7.10
2023-04-07T11:06:28.911Z,6.47
2023-04-07T11:09:00.667Z,8.13
2023-04-07T11:11:39.924Z,8.13
2023-04-07T11:14:09.220Z,6.70
2023-04-07T11:16:43.268Z,7.63
2023-04-07T11:19:11.304Z,7.17
2023-04-07T11:21:40.440Z,7.47
2023-04-07T11:24:09.553Z,7.30
2023-04-07T11:26:42.635Z,6.53
2023-04-07T11:29:12.578Z,7.07
2023-04-07T11:31:39.883Z,6.30
2023-04-07T11:34:07.487Z,7.13
2023-04-07T11:36:44.269Z,6.30
2023-04-07T11:39:22.067Z,6.33
2023-04-07T11:41:51.586Z,5.73
2023-04-07T11:44:18.681Z,7.27
2023-04-07T11:46:56.495Z,6.73
2023-04-07T11:49:26.056Z,5.43
2023-04-07T11:52:07.417Z,7.27
2023-04-07T11:54:50.453Z,5.60
2023-04-07T11:57:30.976Z,6.43
2023-04-07T12:00:09.103Z,5.87
2023-04-07T12:02:37.016Z,7.43
2023-04-07T12:05:05.416Z,6.77
2023-04-07T12:07:33.213Z,5.27
2023-04-07T12:10:22.180Z,7.10
2023-04-07T12:12:51.974Z,5.73
2023-04-07T12:15:21.640Z,7.57
2023-04-07T12:17:51.557Z,5.87
2023-04-07T12:20:18.786Z,5.97
2023-04-07T12:22:48.137Z,5.87
2023-04-07T12:25:14.976Z,4.87
2023-04-07T12:27:44.295Z,5.57
2023-04-07T12:30:13.268Z,4.67
2023-04-07T12:32:43.328Z,5.50
2023-04-07T12:35:12.514Z,5.00
2023-04-07T12:37:39.369Z,5.23
2023-04-07T12:40:07.315Z,4.87
2023-04-07T12:42:36.283Z,4.97
2023-04-07T12:45:03.403Z,4.80
2023-04-07T12:47:31.129Z,4.30
2023-04-07T12:50:03.509Z,4.90
2023-04-07T12:52:32.915Z,5.07
2023-04-07T12:54:59.800Z,4.07
2023-04-07T12:57:27.407Z,3.80
2023-04-07T12:59:56.894Z,3.70
2023-04-07T13:02:28.089Z,3.60
2023-04-07T13:04:59.541Z,3.47
2023-04-07T13:07:26.918Z,3.07
2023-04-07T13:09:54.551Z,3.20
2023-04-07T13:12:21.374Z,3.17
2023-04-07T13:14:59.111Z,3.50
2023-04-07T13:17:33.149Z,2.97
2023-04-07T13:20:00.250Z,3.47
2023-04-07T13:22:29.676Z,2.97
2023-04-07T13:25:00.819Z,3.70
2023-04-07T13:27:31.209Z,3.17
2023-04-07T13:29:58.089Z,2.77
2023-04-07T13:32:25.019Z,2.70
2023-04-07T13:34:52.802Z,2.20
2023-04-07T13:37:26.322Z,3.30
2023-04-07T13:39:55.323Z,2.53
2023-04-07T13:42:29.131Z,2.80
2023-04-07T13:44:58.487Z,2.30
2023-04-07T13:47:29.724Z,4.30
2023-04-07T13:50:02.100Z,2.83
2023-04-07T13:52:28.912Z,3.97
2023-04-07T13:54:58.191Z,2.10
2023-04-07T13:57:25.052Z,3.10
2023-04-07T13:59:54.253Z,4.23
2023-04-07T14:02:27.914Z,3.87
2023-04-07T14:04:54.997Z,4.60
2023-04-07T14:07:24.286Z,7.20
2023-04-07T14:09:51.792Z,5.93
2023-04-07T14:12:21.674Z,3.80
2023-04-07T14:14:54.884Z,3.80
2023-04-07T14:17:21.810Z,3.40
2023-04-07T14:19:51.667Z,3.23
2023-04-07T14:22:21.191Z,2.50
2023-04-07T14:24:50.237Z,2.50
2023-04-07T14:27:21.709Z,2.60
2023-04-07T14:29:51.401Z,2.13
2023-04-07T14:32:20.337Z,1.80
2023-04-07T14:34:47.631Z,1.30
2023-04-07T14:37:18.631Z,1.80
2023-04-07T14:39:55.262Z,2.43
2023-04-07T14:42:31.579Z,1.60
2023-04-07T14:45:00.015Z,1.90
2023-04-07T14:47:29.767Z,1.53
2023-04-07T14:50:01.680Z,1.60
2023-04-07T14:52:30.858Z,1.70
2023-04-07T14:55:00.446Z,1.50
2023-04-07T14:57:30.135Z,1.80
2023-04-07T15:00:01.785Z,1.20
2023-04-07T15:02:29.434Z,1.10
2023-04-07T15:04:56.531Z,1.50
2023-04-07T15:07:26.079Z,1.03
2023-04-07T15:09:56.687Z,1.50
2023-04-07T15:12:23.741Z,1.30
2023-04-07T15:14:54.825Z,1.27
2023-04-07T15:17:36.295Z,1.30
2023-04-07T15:20:06.249Z,2.13
2023-04-07T15:22:38.018Z,1.50
2023-04-07T15:25:07.929Z,1.10
2023-04-07T15:27:39.959Z,1.07
2023-04-07T15:30:07.838Z,1.73
2023-04-07T15:32:36.749Z,1.30
2023-04-07T15:35:06.555Z,1.40
2023-04-07T15:37:33.452Z,1.10
2023-04-07T15:40:02.595Z,1.07
2023-04-07T15:42:33.552Z,1.50
2023-04-07T15:45:00.336Z,1.40
2023-04-07T15:47:27.184Z,1.00
2023-04-07T15:49:54.052Z,1.00
2023-04-07T15:52:23.907Z,1.20
2023-04-07T15:54:57.844Z,1.07
2023-04-07T15:57:27.766Z,1.07
2023-04-07T16:00:00.229Z,1.00
2023-04-07T16:02:29.711Z,1.10
2023-04-07T16:04:57.442Z,1.80
2023-04-07T16:07:27.367Z,1.93
2023-04-07T16:09:58.420Z,2.20
2023-04-07T16:12:29.966Z,2.30
2023-04-07T16:14:59.454Z,2.27
2023-04-07T16:17:28.879Z,2.30
2023-04-07T16:20:00.726Z,1.83
2023-04-07T16:22:34.637Z,1.70
2023-04-07T16:25:04.575Z,1.17
2023-04-07T16:27:33.897Z,1.40
2023-04-07T16:30:05.511Z,1.30
2023-04-07T16:32:35.338Z,1.23
2023-04-07T16:35:06.295Z,1.70
2023-04-07T16:37:33.245Z,1.40
2023-04-07T16:40:05.070Z,1.40
2023-04-07T16:42:34.678Z,1.27
2023-04-07T16:45:06.970Z,1.50
2023-04-07T16:47:36.156Z,1.10
2023-04-07T16:50:04.545Z,1.80
2023-04-07T16:52:32.243Z,2.20
2023-04-07T16:55:02.967Z,2.60
2023-04-07T16:57:34.616Z,2.50
2023-04-07T17:00:04.581Z,2.40
2023-04-07T17:02:35.949Z,2.00
2023-04-07T17:05:02.998Z,1.87
2023-04-07T17:07:32.085Z,1.60
2023-04-07T17:10:01.372Z,1.40
2023-04-07T17:12:28.192Z,1.40
2023-04-07T17:14:55.049Z,1.63
2023-04-07T17:17:24.307Z,1.80
2023-04-07T17:19:57.588Z,1.30
2023-04-07T17:22:26.842Z,1.73
2023-04-07T17:24:56.201Z,2.13
2023-04-07T17:27:23.145Z,2.00
2023-04-07T17:29:49.949Z,2.10
2023-04-07T17:32:16.792Z,2.20
2023-04-07T17:34:48.200Z,1.70
2023-04-07T17:37:15.287Z,2.00
2023-04-07T17:39:42.413Z,1.93
2023-04-07T17:42:11.612Z,2.30
2023-04-07T17:44:43.638Z,2.13
2023-04-07T17:47:15.045Z,2.03
2023-04-07T17:49:42.100Z,2.40
2023-04-07T17:52:08.955Z,1.90
2023-04-07T17:54:38.213Z,1.70
2023-04-07T17:57:09.597Z,1.83
2023-04-07T17:59:38.968Z,2.10
2023-04-07T18:02:10.453Z,1.83
2023-04-07T18:04:38.527Z,1.80
2023-04-07T18:07:05.789Z,1.90
2023-04-07T18:09:40.913Z,2.00
2023-04-07T18:12:13.419Z,2.40
2023-04-07T18:14:40.418Z,2.23
2023-04-07T18:17:09.821Z,2.50
2023-04-07T18:19:39.226Z,1.97
2023-04-07T18:22:11.642Z,2.47
2023-04-07T18:24:43.307Z,1.90
2023-04-07T18:27:10.404Z,2.87
2023-04-07T18:29:39.322Z,1.80
2023-04-07T18:32:06.428Z,1.90
2023-04-07T18:34:33.290Z,2.40
2023-04-07T18:37:04.758Z,2.30
2023-04-07T18:39:38.249Z,2.20
2023-04-07T18:42:10.384Z,2.37
2023-04-07T18:44:37.297Z,2.50
2023-04-07T18:47:08.526Z,2.50
2023-04-07T18:49:37.874Z,2.73
2023-04-07T18:52:04.711Z,3.00
2023-04-07T18:54:33.876Z,2.37
2023-04-07T18:57:03.867Z,2.17
2023-04-07T18:59:35.571Z,2.30
2023-04-07T19:02:05.024Z,2.90
2023-04-07T19:04:36.815Z,3.57
2023-04-07T19:07:06.006Z,2.70
2023-04-07T19:09:36.648Z,2.40
2023-04-07T19:12:06.188Z,2.70
2023-04-07T19:14:33.014Z,2.60
2023-04-07T19:17:00.326Z,3.40
2023-04-07T19:19:30.064Z,2.80
2023-04-07T19:22:01.317Z,2.77
2023-04-07T19:24:31.177Z,2.63
2023-04-07T19:26:58.373Z,2.83
2023-04-07T19:29:25.251Z,2.73
2023-04-07T19:31:57.319Z,4.50
2023-04-07T19:34:24.237Z,2.87
2023-04-07T19:36:53.124Z,3.10
2023-04-07T19:39:20.333Z,2.80
2023-04-07T19:41:47.200Z,2.20
2023-04-07T19:44:18.116Z,2.37
2023-04-07T19:46:50.270Z,2.40
2023-04-07T19:49:19.146Z,2.70
2023-04-07T19:51:51.040Z,2.83
2023-04-07T19:54:17.910Z,3.03
2023-04-07T19:56:51.832Z,2.50
2023-04-07T19:59:26.085Z,2.73
2023-04-07T20:01:53.155Z,2.80
2023-04-07T20:04:22.549Z,2.87
2023-04-07T20:06:51.741Z,2.37
2023-04-07T20:09:20.409Z,2.90
2023-04-07T20:11:47.367Z,3.27
2023-04-07T20:14:14.121Z,3.30
2023-04-07T20:16:43.442Z,2.77
2023-04-07T20:19:10.473Z,2.70
2023-04-07T20:21:37.578Z,2.70
2023-04-07T20:24:08.829Z,2.23
2023-04-07T20:26:37.981Z,2.60
2023-04-07T20:29:08.068Z,2.10
2023-04-07T20:31:35.168Z,2.93
2023-04-07T20:34:08.712Z,2.57
2023-04-07T20:36:35.814Z,3.10
2023-04-07T20:39:04.776Z,3.00
2023-04-07T20:41:31.902Z,2.80
2023-04-07T20:44:00.897Z,3.27
2023-04-07T20:46:30.482Z,3.20
2023-04-07T20:48:57.425Z,3.53
2023-04-07T20:51:24.647Z,3.60
2023-04-07T20:53:51.672Z,3.87
2023-04-07T20:56:23.676Z,3.80
2023-04-07T20:58:53.089Z,3.60
2023-04-07T21:01:19.924Z,4.10
2023-04-07T21:03:49.061Z,3.73
2023-04-07T21:06:20.531Z,4.23
2023-04-07T21:08:52.161Z,4.80
2023-04-07T21:11:23.866Z,5.13
2023-04-07T21:13:53.275Z,4.60
2023-04-07T21:16:24.688Z,4.70
2023-04-07T21:18:54.082Z,4.33
2023-04-07T21:21:21.355Z,4.63
2023-04-07T21:23:52.804Z,4.37
2023-04-07T21:26:22.208Z,5.20
2023-04-07T21:28:51.820Z,5.07
2023-04-07T21:31:26.608Z,5.80
2023-04-07T21:33:53.748Z,5.13
2023-04-07T21:36:20.732Z,6.27
2023-04-07T21:38:52.849Z,3.60
2023-04-07T21:41:22.284Z,3.60
2023-04-07T21:43:49.127Z,3.50
2023-04-07T21:46:16.956Z,3.20
2023-04-07T21:48:48.165Z,3.17
2023-04-07T21:51:24.428Z,4.50
2023-04-07T21:53:53.590Z,2.90
2023-04-07T21:56:21.780Z,2.73
2023-04-07T21:58:51.057Z,3.13
2023-04-07T22:01:20.330Z,3.10
2023-04-07T22:03:49.672Z,3.83
2023-04-07T22:06:18.789Z,3.30
2023-04-07T22:08:54.963Z,2.63
2023-04-07T22:11:30.372Z,3.13
2023-04-07T22:14:01.695Z,2.90
2023-04-07T22:16:28.589Z,3.03
2023-04-07T22:19:00.130Z,3.40
2023-04-07T22:21:33.998Z,2.83
2023-04-07T22:24:00.901Z,3.07
2023-04-07T22:26:31.611Z,3.40
2023-04-07T22:29:00.795Z,2.70
2023-04-07T22:31:31.956Z,2.73
2023-04-07T22:34:01.033Z,3.17
2023-04-07T22:36:33.447Z,2.73
2023-04-07T22:39:00.408Z,3.07
2023-04-07T22:41:29.400Z,2.67
2023-04-07T22:43:58.423Z,2.63
2023-04-07T22:46:27.667Z,2.60
2023-04-07T22:48:54.593Z,2.63
2023-04-07T22:51:30.637Z,2.80
2023-04-07T22:53:57.434Z,2.50
2023-04-07T22:56:27.156Z,3.90
2023-04-07T22:58:57.471Z,2.73
2023-04-07T23:01:27.479Z,2.30
2023-04-07T23:03:57.312Z,2.70
2023-04-07T23:06:28.524Z,2.67
2023-04-07T23:08:56.424Z,2.17
2023-04-07T23:11:26.254Z,2.60
2023-04-07T23:13:55.568Z,2.70
2023-04-07T23:16:26.009Z,2.87
2023-04-07T23:18:55.529Z,2.80
2023-04-07T23:21:22.307Z,3.43
2023-04-07T23:23:51.296Z,5.17
2023-04-07T23:26:18.212Z,5.43
2023-04-07T23:28:46.206Z,4.20
2023-04-07T23:31:15.582Z,2.97
2023-04-07T23:33:44.525Z,2.70
2023-04-07T23:36:11.372Z,2.77
2023-04-07T23:38:40.855Z,2.60
2023-04-07T23:41:10.545Z,2.20
2023-04-07T23:43:39.649Z,2.63
2023-04-07T23:46:08.963Z,2.70
2023-04-07T23:48:36.196Z,2.97
2023-04-07T23:51:06.108Z,2.70
2023-04-07T23:53:37.422Z,2.57
2023-04-07T23:56:04.713Z,2.63
2023-04-07T23:58:36.266Z,2.50
